sensor_id;sensor_type;location;lat;lon;timestamp;pressure;altitude;pressure_sealevel;temperature;humidity
9261;BME280;4667;42.726;23.252;2022-10-16T00:02:25;95888.75;;;8.18;nan
9261;BME280;4667;42.726;23.252;2022-10-16T00:04:51;95897.00;;;8.26;nan
9261;BME280;4667;42.726;23.252;2022-10-16T00:07:20;95892.75;;;8.25;nan
9261;BME280;4667;42.726;23.252;2022-10-16T00:09:47;95903.75;;;8.16;nan
9261;BME280;4667;42.726;23.252;2022-10-16T00:12:13;95899.69;;;8.06;nan
9261;BME280;4667;42.726;23.252;2022-10-16T00:14:41;95892.38;;;8.07;nan
9261;BME280;4667;42.726;23.252;2022-10-16T00:17:09;95900.03;;;8.05;nan
9261;BME280;4667;42.726;23.252;2022-10-16T00:19:36;95904.94;;;7.99;nan
9261;BME280;4667;42.726;23.252;2022-10-16T00:22:02;95905.56;;;7.93;nan
9261;BME280;4667;42.726;23.252;2022-10-16T00:24:29;95911.03;;;7.61;nan
9261;BME280;4667;42.726;23.252;2022-10-16T00:26:56;95909.59;;;7.83;nan
9261;BME280;4667;42.726;23.252;2022-10-16T00:29:22;95914.13;;;7.79;nan
9261;BME280;4667;42.726;23.252;2022-10-16T00:31:51;95911.16;;;7.84;nan
9261;BME280;4667;42.726;23.252;2022-10-16T00:34:17;95916.66;;;7.72;nan
9261;BME280;4667;42.726;23.252;2022-10-16T00:36:44;95914.41;;;7.74;nan
9261;BME280;4667;42.726;23.252;2022-10-16T00:39:11;95925.09;;;7.70;nan
9261;BME280;4667;42.726;23.252;2022-10-16T00:41:38;95912.13;;;7.76;nan
9261;BME280;4667;42.726;23.252;2022-10-16T00:47:08;95904.53;;;7.62;nan
9261;BME280;4667;42.726;23.252;2022-10-16T00:49:35;95912.50;;;7.59;nan
9261;BME280;4667;42.726;23.252;2022-10-16T00:52:02;95907.91;;;7.59;nan
9261;BME280;4667;42.726;23.252;2022-10-16T00:54:31;95911.72;;;7.58;nan
9261;BME280;4667;42.726;23.252;2022-10-16T00:57:01;95908.25;;;7.58;nan
9261;BME280;4667;42.726;23.252;2022-10-16T00:59:30;95909.38;;;7.57;nan
9261;BME280;4667;42.726;23.252;2022-10-16T01:01:58;95910.03;;;7.50;nan
9261;BME280;4667;42.726;23.252;2022-10-16T01:04:26;95900.88;;;7.55;nan
9261;BME280;4667;42.726;23.252;2022-10-16T01:07:04;95912.97;;;7.61;nan
9261;BME280;4667;42.726;23.252;2022-10-16T01:09:37;95909.59;;;7.48;nan
9261;BME280;4667;42.726;23.252;2022-10-16T01:12:12;95912.50;;;7.59;nan
9261;BME280;4667;42.726;23.252;2022-10-16T01:14:46;95917.13;;;7.58;nan
9261;BME280;4667;42.726;23.252;2022-10-16T01:17:17;95918.63;;;7.56;nan
9261;BME280;4667;42.726;23.252;2022-10-16T01:20:01;95914.78;;;7.57;nan
9261;BME280;4667;42.726;23.252;2022-10-16T01:22:43;95912.00;;;7.53;nan
9261;BME280;4667;42.726;23.252;2022-10-16T01:25:19;95906.16;;;7.51;nan
9261;BME280;4667;42.726;23.252;2022-10-16T01:27:51;95908.25;;;7.58;nan
9261;BME280;4667;42.726;23.252;2022-10-16T01:30:23;95906.28;;;7.55;nan
9261;BME280;4667;42.726;23.252;2022-10-16T01:32:55;95903.75;;;7.46;nan
9261;BME280;4667;42.726;23.252;2022-10-16T01:35:26;95914.97;;;7.48;nan
9261;BME280;4667;42.726;23.252;2022-10-16T01:37:59;95909.59;;;7.48;nan
9261;BME280;4667;42.726;23.252;2022-10-16T01:40:29;95916.03;;;7.44;nan
9261;BME280;4667;42.726;23.252;2022-10-16T01:43:03;95909.69;;;7.36;nan
9261;BME280;4667;42.726;23.252;2022-10-16T01:45:32;95919.00;;;7.38;nan
9261;BME280;4667;42.726;23.252;2022-10-16T01:48:00;95917.59;;;7.29;nan
9261;BME280;4667;42.726;23.252;2022-10-16T01:50:31;95917.69;;;7.32;nan
9261;BME280;4667;42.726;23.252;2022-10-16T01:53:02;95919.59;;;7.32;nan
9261;BME280;4667;42.726;23.252;2022-10-16T01:55:34;95926.72;;;7.24;nan
9261;BME280;4667;42.726;23.252;2022-10-16T01:58:07;95930.81;;;7.18;nan
9261;BME280;4667;42.726;23.252;2022-10-16T02:00:37;95930.28;;;7.13;nan
9261;BME280;4667;42.726;23.252;2022-10-16T02:03:05;95933.31;;;7.11;nan
9261;BME280;4667;42.726;23.252;2022-10-16T02:05:38;95931.75;;;7.10;nan
9261;BME280;4667;42.726;23.252;2022-10-16T02:08:06;95931.31;;;7.08;nan
9261;BME280;4667;42.726;23.252;2022-10-16T02:10:35;95939.63;;;7.03;nan
9261;BME280;4667;42.726;23.252;2022-10-16T02:13:08;95947.81;;;7.07;nan
9261;BME280;4667;42.726;23.252;2022-10-16T02:15:35;95953.56;;;7.05;nan
9261;BME280;4667;42.726;23.252;2022-10-16T02:18:04;95945.72;;;7.00;nan
9261;BME280;4667;42.726;23.252;2022-10-16T02:20:34;95951.72;;;6.93;nan
9261;BME280;4667;42.726;23.252;2022-10-16T02:23:03;95954.66;;;6.88;nan
9261;BME280;4667;42.726;23.252;2022-10-16T02:25:32;95956.66;;;6.91;nan
9261;BME280;4667;42.726;23.252;2022-10-16T02:28:04;95959.19;;;6.84;nan
9261;BME280;4667;42.726;23.252;2022-10-16T02:30:36;95967.66;;;6.71;nan
9261;BME280;4667;42.726;23.252;2022-10-16T02:33:07;95960.44;;;6.75;nan
9261;BME280;4667;42.726;23.252;2022-10-16T02:35:36;95956.97;;;6.74;nan
9261;BME280;4667;42.726;23.252;2022-10-16T02:38:03;95958.00;;;6.70;nan
9261;BME280;4667;42.726;23.252;2022-10-16T02:40:30;95957.47;;;6.64;nan
9261;BME280;4667;42.726;23.252;2022-10-16T02:42:57;95958.00;;;6.70;nan
9261;BME280;4667;42.726;23.252;2022-10-16T02:45:24;95962.06;;;6.64;nan
9261;BME280;4667;42.726;23.252;2022-10-16T02:47:53;95966.56;;;6.60;nan
9261;BME280;4667;42.726;23.252;2022-10-16T02:50:20;95973.16;;;6.62;nan
9261;BME280;4667;42.726;23.252;2022-10-16T02:52:47;95978.66;;;6.66;nan
9261;BME280;4667;42.726;23.252;2022-10-16T02:55:14;95978.75;;;6.69;nan
9261;BME280;4667;42.726;23.252;2022-10-16T02:57:41;95980.25;;;6.67;nan
9261;BME280;4667;42.726;23.252;2022-10-16T03:00:09;95980.47;;;6.62;nan
9261;BME280;4667;42.726;23.252;2022-10-16T03:02:38;95978.91;;;6.61;nan
9261;BME280;4667;42.726;23.252;2022-10-16T03:05:07;95979.13;;;6.55;nan
9261;BME280;4667;42.726;23.252;2022-10-16T03:07:34;95979.91;;;6.56;nan
9261;BME280;4667;42.726;23.252;2022-10-16T03:10:02;95979.63;;;6.45;nan
9261;BME280;4667;42.726;23.252;2022-10-16T03:12:37;95978.19;;;6.48;nan
9261;BME280;4667;42.726;23.252;2022-10-16T03:15:04;95978.63;;;6.38;nan
9261;BME280;4667;42.726;23.252;2022-10-16T03:17:32;95978.44;;;6.31;nan
9261;BME280;4667;42.726;23.252;2022-10-16T03:20:00;95981.94;;;6.31;nan
9261;BME280;4667;42.726;23.252;2022-10-16T03:22:28;95980.59;;;6.25;nan
9261;BME280;4667;42.726;23.252;2022-10-16T03:24:55;95988.78;;;6.17;nan
9261;BME280;4667;42.726;23.252;2022-10-16T03:27:21;95990.69;;;6.16;nan
9261;BME280;4667;42.726;23.252;2022-10-16T03:29:48;95994.16;;;6.17;nan
9261;BME280;4667;42.726;23.252;2022-10-16T03:32:15;95993.06;;;6.05;nan
9261;BME280;4667;42.726;23.252;2022-10-16T03:34:41;95995.31;;;6.03;nan
9261;BME280;4667;42.726;23.252;2022-10-16T03:37:08;95994.19;;;6.04;nan
9261;BME280;4667;42.726;23.252;2022-10-16T03:39:37;95992.28;;;6.05;nan
9261;BME280;4667;42.726;23.252;2022-10-16T03:42:03;95987.94;;;6.00;nan
9261;BME280;4667;42.726;23.252;2022-10-16T03:44:30;95981.53;;;5.93;nan
9261;BME280;4667;42.726;23.252;2022-10-16T03:46:57;95983.22;;;5.97;nan
9261;BME280;4667;42.726;23.252;2022-10-16T03:49:23;95986.25;;;5.96;nan
9261;BME280;4667;42.726;23.252;2022-10-16T03:51:50;95988.94;;;5.96;nan
9261;BME280;4667;42.726;23.252;2022-10-16T03:54:17;95986.13;;;5.92;nan
9261;BME280;4667;42.726;23.252;2022-10-16T03:56:45;95987.16;;;5.88;nan
9261;BME280;4667;42.726;23.252;2022-10-16T03:59:12;95982.66;;;5.92;nan
9261;BME280;4667;42.726;23.252;2022-10-16T04:01:39;95986.91;;;5.93;nan
9261;BME280;4667;42.726;23.252;2022-10-16T04:04:06;95989.50;;;5.89;nan
9261;BME280;4667;42.726;23.252;2022-10-16T04:06:33;95985.69;;;5.90;nan
9261;BME280;4667;42.726;23.252;2022-10-16T04:08:59;95981.78;;;5.88;nan
9261;BME280;4667;42.726;23.252;2022-10-16T04:11:26;95992.19;;;5.89;nan
9261;BME280;4667;42.726;23.252;2022-10-16T04:13:54;95995.53;;;5.86;nan
9261;BME280;4667;42.726;23.252;2022-10-16T04:16:21;95998.09;;;5.83;nan
9261;BME280;4667;42.726;23.252;2022-10-16T04:18:48;96000.78;;;5.83;nan
9261;BME280;4667;42.726;23.252;2022-10-16T04:21:14;95988.25;;;5.74;nan
9261;BME280;4667;42.726;23.252;2022-10-16T04:23:41;95990.03;;;5.83;nan
9261;BME280;4667;42.726;23.252;2022-10-16T04:26:08;95997.19;;;5.79;nan
9261;BME280;4667;42.726;23.252;2022-10-16T04:28:35;95996.06;;;5.80;nan
9261;BME280;4667;42.726;23.252;2022-10-16T04:31:05;95998.66;;;5.76;nan
9261;BME280;4667;42.726;23.252;2022-10-16T04:33:32;95999.13;;;5.66;nan
9261;BME280;4667;42.726;23.252;2022-10-16T04:36:02;95999.69;;;5.71;nan
9261;BME280;4667;42.726;23.252;2022-10-16T04:38:29;96009.75;;;5.74;nan
9261;BME280;4667;42.726;23.252;2022-10-16T04:40:56;96009.84;;;5.78;nan
9261;BME280;4667;42.726;23.252;2022-10-16T04:43:25;96007.28;;;5.69;nan
9261;BME280;4667;42.726;23.252;2022-10-16T04:45:52;96013.56;;;5.73;nan
9261;BME280;4667;42.726;23.252;2022-10-16T04:48:21;96015.22;;;5.78;nan
9261;BME280;4667;42.726;23.252;2022-10-16T04:50:48;96018.28;;;5.77;nan
9261;BME280;4667;42.726;23.252;2022-10-16T04:53:15;96024.06;;;5.66;nan
9261;BME280;4667;42.726;23.252;2022-10-16T04:55:42;96026.09;;;5.69;nan
9261;BME280;4667;42.726;23.252;2022-10-16T04:58:09;96029.44;;;5.79;nan
9261;BME280;4667;42.726;23.252;2022-10-16T05:00:36;96031.34;;;5.78;nan
9261;BME280;4667;42.726;23.252;2022-10-16T05:03:03;96034.16;;;5.82;nan
9261;BME280;4667;42.726;23.252;2022-10-16T05:05:34;96034.44;;;5.89;nan
9261;BME280;4667;42.726;23.252;2022-10-16T05:08:01;96034.97;;;5.82;nan
9261;BME280;4667;42.726;23.252;2022-10-16T05:10:29;96037.44;;;5.87;nan
9261;BME280;4667;42.726;23.252;2022-10-16T05:12:56;96034.66;;;5.96;nan
9261;BME280;4667;42.726;23.252;2022-10-16T05:15:23;96040.78;;;5.96;nan
9261;BME280;4667;42.726;23.252;2022-10-16T05:17:52;96043.06;;;6.06;nan
9261;BME280;4667;42.726;23.252;2022-10-16T05:20:19;96038.66;;;6.14;nan
9261;BME280;4667;42.726;23.252;2022-10-16T05:22:47;96035.16;;;6.26;nan
9261;BME280;4667;42.726;23.252;2022-10-16T05:25:14;96042.66;;;6.32;nan
9261;BME280;4667;42.726;23.252;2022-10-16T05:27:41;96041.75;;;6.40;nan
9261;BME280;4667;42.726;23.252;2022-10-16T05:30:09;96045.78;;;6.46;nan
9261;BME280;4667;42.726;23.252;2022-10-16T05:32:36;96048.94;;;6.48;nan
9261;BME280;4667;42.726;23.252;2022-10-16T05:35:03;96045.22;;;6.53;nan
9261;BME280;4667;42.726;23.252;2022-10-16T05:37:29;96056.03;;;6.69;nan
9261;BME280;4667;42.726;23.252;2022-10-16T05:39:57;96062.50;;;6.80;nan
9261;BME280;4667;42.726;23.252;2022-10-16T05:42:24;96057.88;;;6.92;nan
9261;BME280;4667;42.726;23.252;2022-10-16T05:44:53;96056.69;;;7.06;nan
9261;BME280;4667;42.726;23.252;2022-10-16T05:47:20;96061.59;;;7.16;nan
9261;BME280;4667;42.726;23.252;2022-10-16T05:49:47;96061.88;;;7.26;nan
9261;BME280;4667;42.726;23.252;2022-10-16T05:52:14;96061.47;;;7.40;nan
9261;BME280;4667;42.726;23.252;2022-10-16T05:54:41;96065.50;;;7.62;nan
9261;BME280;4667;42.726;23.252;2022-10-16T05:57:09;96073.84;;;7.72;nan
9261;BME280;4667;42.726;23.252;2022-10-16T05:59:36;96074.44;;;7.82;nan
9261;BME280;4667;42.726;23.252;2022-10-16T06:02:03;96071.94;;;7.89;nan
9261;BME280;4667;42.726;23.252;2022-10-16T06:04:30;96079.16;;;8.00;nan
9261;BME280;4667;42.726;23.252;2022-10-16T06:06:58;96076.38;;;8.12;nan
9261;BME280;4667;42.726;23.252;2022-10-16T06:09:25;96077.38;;;8.24;nan
9261;BME280;4667;42.726;23.252;2022-10-16T06:11:54;96083.22;;;8.26;nan
9261;BME280;4667;42.726;23.252;2022-10-16T06:14:23;96085.00;;;8.34;nan
9261;BME280;4667;42.726;23.252;2022-10-16T06:16:50;96082.59;;;8.48;nan
9261;BME280;4667;42.726;23.252;2022-10-16T06:19:17;96088.69;;;8.60;nan
9261;BME280;4667;42.726;23.252;2022-10-16T06:21:44;96087.31;;;8.70;nan
9261;BME280;4667;42.726;23.252;2022-10-16T06:24:10;96091.91;;;8.85;nan
9261;BME280;4667;42.726;23.252;2022-10-16T06:26:37;96095.56;;;8.93;nan
9261;BME280;4667;42.726;23.252;2022-10-16T06:29:04;96101.03;;;8.96;nan
9261;BME280;4667;42.726;23.252;2022-10-16T06:31:32;96093.75;;;9.00;nan
9261;BME280;4667;42.726;23.252;2022-10-16T06:33:59;96100.94;;;9.12;nan
9261;BME280;4667;42.726;23.252;2022-10-16T06:36:27;96094.91;;;9.19;nan
9261;BME280;4667;42.726;23.252;2022-10-16T06:38:54;96096.97;;;9.25;nan
9261;BME280;4667;42.726;23.252;2022-10-16T06:41:22;96095.84;;;9.26;nan
9261;BME280;4667;42.726;23.252;2022-10-16T06:43:49;96095.63;;;9.35;nan
9261;BME280;4667;42.726;23.252;2022-10-16T06:46:18;96101.53;;;9.40;nan
9261;BME280;4667;42.726;23.252;2022-10-16T06:48:46;96105.56;;;9.50;nan
9261;BME280;4667;42.726;23.252;2022-10-16T06:51:14;96107.13;;;9.51;nan
9261;BME280;4667;42.726;23.252;2022-10-16T06:53:43;96108.63;;;9.49;nan
9261;BME280;4667;42.726;23.252;2022-10-16T06:56:12;96117.16;;;9.51;nan
9261;BME280;4667;42.726;23.252;2022-10-16T06:58:40;96106.50;;;9.38;nan
9261;BME280;4667;42.726;23.252;2022-10-16T07:01:08;96111.75;;;9.51;nan
9261;BME280;4667;42.726;23.252;2022-10-16T07:03:36;96113.16;;;9.64;nan
9261;BME280;4667;42.726;23.252;2022-10-16T07:06:09;96114.28;;;9.82;nan
9261;BME280;4667;42.726;23.252;2022-10-16T07:08:38;96119.94;;;10.19;nan
9261;BME280;4667;42.726;23.252;2022-10-16T07:11:06;96114.47;;;10.64;nan
9261;BME280;4667;42.726;23.252;2022-10-16T07:13:34;96113.13;;;11.08;nan
9261;BME280;4667;42.726;23.252;2022-10-16T07:16:04;96110.59;;;11.55;nan
9261;BME280;4667;42.726;23.252;2022-10-16T07:18:31;96106.97;;;12.21;nan
9261;BME280;4667;42.726;23.252;2022-10-16T07:21:05;96098.47;;;12.74;nan
9261;BME280;4667;42.726;23.252;2022-10-16T07:23:31;96103.03;;;13.21;nan
9261;BME280;4667;42.726;23.252;2022-10-16T07:25:58;96093.09;;;13.89;nan
9261;BME280;4667;42.726;23.252;2022-10-16T07:28:25;96096.66;;;14.43;nan
9261;BME280;4667;42.726;23.252;2022-10-16T07:30:52;96093.56;;;14.48;nan
9261;BME280;4667;42.726;23.252;2022-10-16T07:33:19;96104.84;;;14.67;nan
9261;BME280;4667;42.726;23.252;2022-10-16T07:35:49;96101.25;;;15.09;nan
9261;BME280;4667;42.726;23.252;2022-10-16T07:38:18;96096.38;;;15.67;nan
9261;BME280;4667;42.726;23.252;2022-10-16T07:40:45;96094.31;;;15.85;nan
9261;BME280;4667;42.726;23.252;2022-10-16T07:43:12;96092.34;;;16.44;nan
9261;BME280;4667;42.726;23.252;2022-10-16T07:45:46;96096.13;;;16.57;nan
9261;BME280;4667;42.726;23.252;2022-10-16T07:48:14;96093.06;;;16.96;nan
9261;BME280;4667;42.726;23.252;2022-10-16T07:50:41;96100.81;;;17.01;nan
9261;BME280;4667;42.726;23.252;2022-10-16T07:53:08;96096.97;;;17.33;nan
9261;BME280;4667;42.726;23.252;2022-10-16T07:55:36;96099.06;;;17.52;nan
9261;BME280;4667;42.726;23.252;2022-10-16T07:58:03;96098.34;;;17.14;nan
9261;BME280;4667;42.726;23.252;2022-10-16T08:00:30;96108.47;;;17.85;nan
9261;BME280;4667;42.726;23.252;2022-10-16T08:02:57;96104.78;;;18.49;nan
9261;BME280;4667;42.726;23.252;2022-10-16T08:05:25;96095.34;;;18.96;nan
9261;BME280;4667;42.726;23.252;2022-10-16T08:07:52;96103.28;;;19.34;nan
9261;BME280;4667;42.726;23.252;2022-10-16T08:10:21;96102.47;;;18.94;nan
9261;BME280;4667;42.726;23.252;2022-10-16T08:12:50;96100.09;;;19.59;nan
9261;BME280;4667;42.726;23.252;2022-10-16T08:15:17;96094.00;;;19.67;nan
9261;BME280;4667;42.726;23.252;2022-10-16T08:17:44;96087.81;;;19.99;nan
9261;BME280;4667;42.726;23.252;2022-10-16T08:20:11;96094.91;;;19.61;nan
9261;BME280;4667;42.726;23.252;2022-10-16T08:22:38;96090.78;;;19.52;nan
9261;BME280;4667;42.726;23.252;2022-10-16T08:25:05;96096.34;;;19.49;nan
9261;BME280;4667;42.726;23.252;2022-10-16T08:27:32;96089.53;;;19.93;nan
9261;BME280;4667;42.726;23.252;2022-10-16T08:30:00;96087.53;;;19.77;nan
9261;BME280;4667;42.726;23.252;2022-10-16T08:32:27;96089.00;;;19.82;nan
9261;BME280;4667;42.726;23.252;2022-10-16T08:34:54;96097.53;;;19.28;nan
9261;BME280;4667;42.726;23.252;2022-10-16T08:37:20;96086.25;;;19.82;nan
9261;BME280;4667;42.726;23.252;2022-10-16T08:39:47;96085.13;;;19.40;nan
9261;BME280;4667;42.726;23.252;2022-10-16T08:42:36;96094.63;;;19.35;nan
9261;BME280;4667;42.726;23.252;2022-10-16T08:45:26;96089.84;;;19.39;nan
9261;BME280;4667;42.726;23.252;2022-10-16T08:48:06;96092.00;;;19.08;nan
9261;BME280;4667;42.726;23.252;2022-10-16T08:50:39;96092.97;;;18.98;nan
9261;BME280;4667;42.726;23.252;2022-10-16T08:53:07;96087.44;;;18.79;nan
9261;BME280;4667;42.726;23.252;2022-10-16T08:55:40;96090.28;;;18.48;nan
9261;BME280;4667;42.726;23.252;2022-10-16T08:58:12;96092.13;;;18.58;nan
9261;BME280;4667;42.726;23.252;2022-10-16T09:00:41;96093.66;;;18.59;nan
9261;BME280;4667;42.726;23.252;2022-10-16T09:03:17;96095.56;;;18.62;nan
9261;BME280;4667;42.726;23.252;2022-10-16T09:06:10;96092.72;;;18.69;nan
9261;BME280;4667;42.726;23.252;2022-10-16T09:08:47;96092.88;;;18.82;nan
9261;BME280;4667;42.726;23.252;2022-10-16T09:11:25;96090.16;;;19.02;nan
9261;BME280;4667;42.726;23.252;2022-10-16T09:14:01;96092.59;;;19.39;nan
9261;BME280;4667;42.726;23.252;2022-10-16T09:16:34;96087.69;;;19.50;nan
9261;BME280;4667;42.726;23.252;2022-10-16T09:19:09;96093.00;;;19.38;nan
9261;BME280;4667;42.726;23.252;2022-10-16T09:21:40;96083.19;;;19.60;nan
9261;BME280;4667;42.726;23.252;2022-10-16T09:24:12;96080.53;;;20.09;nan
9261;BME280;4667;42.726;23.252;2022-10-16T09:26:40;96084.78;;;20.46;nan
9261;BME280;4667;42.726;23.252;2022-10-16T09:29:09;96083.84;;;20.68;nan
9261;BME280;4667;42.726;23.252;2022-10-16T09:31:38;96088.97;;;21.15;nan
9261;BME280;4667;42.726;23.252;2022-10-16T09:34:06;96081.00;;;21.75;nan
9261;BME280;4667;42.726;23.252;2022-10-16T09:36:40;96085.13;;;22.21;nan
9261;BME280;4667;42.726;23.252;2022-10-16T09:39:09;96084.19;;;22.87;nan
9261;BME280;4667;42.726;23.252;2022-10-16T09:41:38;96087.53;;;23.38;nan
9261;BME280;4667;42.726;23.252;2022-10-16T09:44:17;96080.78;;;24.35;nan
9261;BME280;4667;42.726;23.252;2022-10-16T09:46:59;96083.47;;;24.66;nan
9261;BME280;4667;42.726;23.252;2022-10-16T09:49:27;96074.44;;;24.84;nan
9261;BME280;4667;42.726;23.252;2022-10-16T09:52:03;96064.81;;;24.67;nan
9261;BME280;4667;42.726;23.252;2022-10-16T09:54:30;96056.47;;;25.07;nan
9261;BME280;4667;42.726;23.252;2022-10-16T09:57:04;96057.50;;;25.55;nan
9261;BME280;4667;42.726;23.252;2022-10-16T09:59:31;96056.78;;;26.06;nan
9261;BME280;4667;42.726;23.252;2022-10-16T10:02:03;96058.97;;;25.92;nan
9261;BME280;4667;42.726;23.252;2022-10-16T10:04:39;96055.34;;;26.19;nan
9261;BME280;4667;42.726;23.252;2022-10-16T10:07:17;96052.78;;;26.72;nan
9261;BME280;4667;42.726;23.252;2022-10-16T10:09:45;96055.34;;;26.85;nan
9261;BME280;4667;42.726;23.252;2022-10-16T10:12:19;96050.97;;;26.69;nan
9261;BME280;4667;42.726;23.252;2022-10-16T10:14:47;96045.72;;;26.38;nan
9261;BME280;4667;42.726;23.252;2022-10-16T10:17:18;96050.63;;;26.01;nan
9261;BME280;4667;42.726;23.252;2022-10-16T10:19:51;96054.03;;;26.71;nan
9261;BME280;4667;42.726;23.252;2022-10-16T10:22:22;96044.28;;;27.00;nan
9261;BME280;4667;42.726;23.252;2022-10-16T10:24:56;96042.88;;;26.80;nan
9261;BME280;4667;42.726;23.252;2022-10-16T10:27:32;96041.19;;;27.21;nan
9261;BME280;4667;42.726;23.252;2022-10-16T10:30:06;96042.38;;;27.06;nan
9261;BME280;4667;42.726;23.252;2022-10-16T10:32:43;96031.66;;;26.66;nan
9261;BME280;4667;42.726;23.252;2022-10-16T10:35:17;96022.22;;;26.96;nan
9261;BME280;4667;42.726;23.252;2022-10-16T10:38:02;96025.41;;;26.56;nan
9261;BME280;4667;42.726;23.252;2022-10-16T10:40:42;96016.00;;;26.77;nan
9261;BME280;4667;42.726;23.252;2022-10-16T10:43:21;96017.84;;;26.57;nan
9261;BME280;4667;42.726;23.252;2022-10-16T10:45:55;96009.28;;;26.69;nan
9261;BME280;4667;42.726;23.252;2022-10-16T10:48:43;96011.56;;;26.95;nan
9261;BME280;4667;42.726;23.252;2022-10-16T10:51:18;96010.44;;;27.01;nan
9261;BME280;4667;42.726;23.252;2022-10-16T10:53:56;96008.84;;;27.09;nan
9261;BME280;4667;42.726;23.252;2022-10-16T10:56:42;96010.91;;;26.76;nan
9261;BME280;4667;42.726;23.252;2022-10-16T10:59:42;96007.97;;;27.18;nan
9261;BME280;4667;42.726;23.252;2022-10-16T11:02:22;95999.47;;;27.36;nan
9261;BME280;4667;42.726;23.252;2022-10-16T11:05:07;96002.34;;;27.42;nan
9261;BME280;4667;42.726;23.252;2022-10-16T11:07:46;96001.31;;;27.98;nan
9261;BME280;4667;42.726;23.252;2022-10-16T11:10:17;95996.63;;;27.75;nan
9261;BME280;4667;42.726;23.252;2022-10-16T11:12:47;95995.75;;;27.83;nan
9261;BME280;4667;42.726;23.252;2022-10-16T11:15:20;96000.03;;;28.28;nan
9261;BME280;4667;42.726;23.252;2022-10-16T11:17:53;95994.97;;;27.97;nan
9261;BME280;4667;42.726;23.252;2022-10-16T11:20:26;95991.50;;;28.02;nan
9261;BME280;4667;42.726;23.252;2022-10-16T11:22:57;95988.91;;;28.14;nan
9261;BME280;4667;42.726;23.252;2022-10-16T11:25:27;95979.66;;;28.22;nan
9261;BME280;4667;42.726;23.252;2022-10-16T11:27:57;95984.47;;;28.22;nan
9261;BME280;4667;42.726;23.252;2022-10-16T11:30:29;95988.78;;;28.58;nan
9261;BME280;4667;42.726;23.252;2022-10-16T11:33:04;95993.44;;;27.96;nan
9261;BME280;4667;42.726;23.252;2022-10-16T11:35:44;95983.66;;;27.86;nan
9261;BME280;4667;42.726;23.252;2022-10-16T11:38:19;95986.34;;;27.81;nan
9261;BME280;4667;42.726;23.252;2022-10-16T11:40:52;95978.25;;;27.83;nan
9261;BME280;4667;42.726;23.252;2022-10-16T11:43:26;95981.06;;;27.53;nan
9261;BME280;4667;42.726;23.252;2022-10-16T11:45:55;95984.88;;;28.00;nan
9261;BME280;4667;42.726;23.252;2022-10-16T11:48:27;95980.53;;;28.14;nan
9261;BME280;4667;42.726;23.252;2022-10-16T11:51:02;95973.81;;;28.20;nan
9261;BME280;4667;42.726;23.252;2022-10-16T11:53:41;95979.81;;;28.33;nan
9261;BME280;4667;42.726;23.252;2022-10-16T11:56:12;95978.56;;;27.85;nan
9261;BME280;4667;42.726;23.252;2022-10-16T11:58:45;95976.19;;;28.27;nan
9261;BME280;4667;42.726;23.252;2022-10-16T12:01:18;95977.19;;;28.45;nan
9261;BME280;4667;42.726;23.252;2022-10-16T12:03:58;95982.84;;;28.50;nan
9261;BME280;4667;42.726;23.252;2022-10-16T12:06:34;95985.78;;;28.26;nan
9261;BME280;4667;42.726;23.252;2022-10-16T12:09:04;95975.06;;;28.19;nan
9261;BME280;4667;42.726;23.252;2022-10-16T12:11:35;95978.72;;;28.11;nan
9261;BME280;4667;42.726;23.252;2022-10-16T12:14:33;95982.97;;;28.06;nan
9261;BME280;4667;42.726;23.252;2022-10-16T12:17:03;95975.78;;;27.85;nan
9261;BME280;4667;42.726;23.252;2022-10-16T12:19:31;95968.44;;;28.02;nan
9261;BME280;4667;42.726;23.252;2022-10-16T12:22:01;95965.03;;;28.13;nan
9261;BME280;4667;42.726;23.252;2022-10-16T12:24:33;95979.28;;;28.15;nan
9261;BME280;4667;42.726;23.252;2022-10-16T12:27:04;95985.94;;;28.37;nan
9261;BME280;4667;42.726;23.252;2022-10-16T12:29:35;95985.47;;;28.39;nan
9261;BME280;4667;42.726;23.252;2022-10-16T12:32:04;95978.56;;;28.55;nan
9261;BME280;4667;42.726;23.252;2022-10-16T12:34:37;95975.66;;;28.64;nan
9261;BME280;4667;42.726;23.252;2022-10-16T12:37:19;95964.25;;;28.82;nan
9261;BME280;4667;42.726;23.252;2022-10-16T12:39:48;95965.81;;;28.28;nan
9261;BME280;4667;42.726;23.252;2022-10-16T12:42:33;95959.09;;;28.20;nan
9261;BME280;4667;42.726;23.252;2022-10-16T12:45:01;95972.06;;;28.08;nan
9261;BME280;4667;42.726;23.252;2022-10-16T12:47:48;95977.59;;;27.88;nan
9261;BME280;4667;42.726;23.252;2022-10-16T12:50:30;95968.59;;;28.28;nan
9261;BME280;4667;42.726;23.252;2022-10-16T12:52:59;95971.09;;;27.61;nan
9261;BME280;4667;42.726;23.252;2022-10-16T12:55:33;95970.19;;;27.85;nan
9261;BME280;4667;42.726;23.252;2022-10-16T12:58:09;95976.44;;;27.94;nan
9261;BME280;4667;42.726;23.252;2022-10-16T13:00:44;95976.53;;;27.85;nan
9261;BME280;4667;42.726;23.252;2022-10-16T13:03:28;95977.72;;;28.28;nan
9261;BME280;4667;42.726;23.252;2022-10-16T13:06:07;95980.03;;;28.50;nan
9261;BME280;4667;42.726;23.252;2022-10-16T13:08:50;95981.13;;;28.18;nan
9261;BME280;4667;42.726;23.252;2022-10-16T13:11:25;95986.09;;;27.64;nan
9261;BME280;4667;42.726;23.252;2022-10-16T13:14:19;95983.19;;;27.58;nan
9261;BME280;4667;42.726;23.252;2022-10-16T13:16:53;95987.78;;;27.61;nan
9261;BME280;4667;42.726;23.252;2022-10-16T13:19:28;95983.69;;;27.57;nan
9261;BME280;4667;42.726;23.252;2022-10-16T13:22:04;95986.72;;;27.59;nan
9261;BME280;4667;42.726;23.252;2022-10-16T13:24:47;95984.59;;;27.39;nan
9261;BME280;4667;42.726;23.252;2022-10-16T13:27:25;95987.78;;;27.47;nan
9261;BME280;4667;42.726;23.252;2022-10-16T13:30:02;95987.06;;;27.08;nan
9261;BME280;4667;42.726;23.252;2022-10-16T13:32:36;95980.81;;;26.98;nan
9261;BME280;4667;42.726;23.252;2022-10-16T13:35:18;95992.16;;;27.09;nan
9261;BME280;4667;42.726;23.252;2022-10-16T13:37:46;95981.63;;;26.90;nan
9261;BME280;4667;42.726;23.252;2022-10-16T13:40:19;95996.94;;;27.23;nan
9261;BME280;4667;42.726;23.252;2022-10-16T13:42:46;95989.84;;;27.08;nan
9261;BME280;4667;42.726;23.252;2022-10-16T13:45:23;95979.06;;;27.01;nan
9261;BME280;4667;42.726;23.252;2022-10-16T13:48:01;95985.31;;;26.96;nan
9261;BME280;4667;42.726;23.252;2022-10-16T13:50:28;95993.28;;;26.55;nan
9261;BME280;4667;42.726;23.252;2022-10-16T13:53:03;95992.13;;;26.14;nan
9261;BME280;4667;42.726;23.252;2022-10-16T13:55:31;95986.31;;;26.03;nan
9261;BME280;4667;42.726;23.252;2022-10-16T13:58:05;95992.69;;;26.18;nan
9261;BME280;4667;42.726;23.252;2022-10-16T14:00:32;95994.41;;;26.25;nan
9261;BME280;4667;42.726;23.252;2022-10-16T14:03:01;95996.91;;;26.14;nan